Wetterdaten: Woche 01.02.16 - 07.02.16 (KW5)
Datum Zeit Temp. A. Feuchte A. Luftdruck Regen Wind Richtung Taupunkt Windchill Windben
01.02.2016 00:00 10,0 C 95 % 1016,6 hPa 2,8 l/m 10,4 km/h (2 Bft) O-NO 9,2 C 7,4 C 23,8 km/h (4 Bft)
01.02.2016 01:00 10,2 C 95 % 1017,2 hPa 0,5 l/m 9,9 km/h (2 Bft) N-NO 9,4 C 7,9 C 24,3 km/h (4 Bft)
01.02.2016 02:00 10,2 C 95 % 1018,6 hPa 0,8 l/m 11,3 km/h (2 Bft) O-NO 9,4 C 7,1 C 24,8 km/h (4 Bft)
01.02.2016 03:00 10,0 C 95 % 1019,3 hPa 2,3 l/m 10,3 km/h (2 Bft) O-NO 9,3 C 7,5 C 22,0 km/h (4 Bft)
01.02.2016 04:00 10,1 C 94 % 1019,8 hPa 0,0 l/m 10,9 km/h (2 Bft) O-NO 9,2 C 7,2 C 24,8 km/h (4 Bft)
01.02.2016 05:00 10,0 C 92 % 1021,0 hPa 0,0 l/m 8,3 km/h (2 Bft) O 8,8 C 8,6 C 22,8 km/h (4 Bft)
01.02.2016 06:00 9,9 C 91 % 1021,6 hPa 0,0 l/m 7,6 km/h (2 Bft) O-NO 8,5 C 8,9 C 17,1 km/h (3 Bft)
01.02.2016 07:00 9,7 C 92 % 1022,5 hPa 0,0 l/m 7,0 km/h (2 Bft) NO 8,5 C 8,7 C 18,8 km/h (3 Bft)
01.02.2016 08:00 9,6 C 92 % 1023,5 hPa 0,0 l/m 6,3 km/h (2 Bft) O-NO 8,3 C 8,9 C 14,6 km/h (3 Bft)
01.02.2016 09:00 9,6 C 90 % 1024,0 hPa 0,0 l/m 5,4 km/h (1 Bft) O-NO 8,1 C 9,5 C 13,5 km/h (3 Bft)
01.02.2016 10:00 10,3 C 85 % 1024,2 hPa 0,3 l/m 7,6 km/h (2 Bft) O-NO 7,9 C 9,4 C 19,2 km/h (3 Bft)
01.02.2016 11:00 10,8 C 82 % 1024,6 hPa 0,0 l/m 10,6 km/h (2 Bft) O 7,8 C 8,3 C 22,6 km/h (4 Bft)
01.02.2016 12:00 10,8 C 80 % 1024,5 hPa 0,0 l/m 10,6 km/h (2 Bft) O-NO 7,5 C 8,2 C 22,8 km/h (4 Bft)
01.02.2016 13:00 9,5 C 80 % 1024,8 hPa 0,0 l/m 11,3 km/h (2 Bft) O 6,2 C 6,4 C 26,5 km/h (4 Bft)
01.02.2016 14:00 8,9 C 81 % 1024,8 hPa 0,0 l/m 10,5 km/h (2 Bft) O-NO 5,8 C 6,1 C 22,8 km/h (4 Bft)
01.02.2016 15:00 8,9 C 79 % 1024,5 hPa 0,0 l/m 12,3 km/h (2 Bft) O-NO 5,6 C 5,2 C 25,4 km/h (4 Bft)
01.02.2016 16:00 8,7 C 80 % 1024,1 hPa 0,0 l/m 14,1 km/h (3 Bft) O-NO 5,4 C 4,0 C 32,3 km/h (5 Bft)
01.02.2016 17:00 8,3 C 81 % 1024,2 hPa 0,0 l/m 13,0 km/h (3 Bft) O 5,2 C 4,0 C 27,3 km/h (5 Bft)
01.02.2016 18:00 8,0 C 81 % 1024,7 hPa 0,0 l/m 9,8 km/h (2 Bft) O-NO 5,1 C 5,7 C 21,2 km/h (4 Bft)
01.02.2016 19:00 7,8 C 81 % 1025,3 hPa 0,0 l/m 10,1 km/h (2 Bft) NO 4,8 C 5,3 C 26,4 km/h (4 Bft)
01.02.2016 20:00 7,6 C 82 % 1025,4 hPa 0,0 l/m 7,6 km/h (2 Bft) O-NO 4,6 C 6,5 C 18,6 km/h (3 Bft)
01.02.2016 21:00 7,4 C 82 % 1025,5 hPa 0,0 l/m 8,7 km/h (2 Bft) O-NO 4,6 C 5,5 C 19,0 km/h (3 Bft)
01.02.2016 22:00 7,3 C 83 % 1025,4 hPa 0,0 l/m 9,6 km/h (2 Bft) O 4,6 C 5,0 C 20,1 km/h (4 Bft)
01.02.2016 23:00 7,3 C 83 % 1025,3 hPa 0,0 l/m 8,1 km/h (2 Bft) O 4,7 C 6,0 C 17,7 km/h (3 Bft)
02.02.2016 00:00 7,4 C 83 % 1025,3 hPa 0,0 l/m 7,1 km/h (2 Bft) O-NO 4,7 C 6,4 C 14,5 km/h (3 Bft)
02.02.2016 01:00 7,5 C 83 % 1024,9 hPa 0,0 l/m 5,8 km/h (2 Bft) O 4,9 C 7,3 C 15,7 km/h (3 Bft)
02.02.2016 02:00 7,5 C 85 % 1024,6 hPa 0,0 l/m 3,8 km/h (1 Bft) O-NO 5,1 C 7,4 C 10,4 km/h (2 Bft)
02.02.2016 03:00 7,7 C 85 % 1024,2 hPa 0,0 l/m 4,2 km/h (1 Bft) O-NO 5,3 C 7,5 C 8,2 km/h (2 Bft)
02.02.2016 04:00 7,7 C 86 % 1023,7 hPa 0,0 l/m 4,2 km/h (1 Bft) O 5,4 C 7,5 C 8,3 km/h (2 Bft)
02.02.2016 05:00 7,7 C 85 % 1023,2 hPa 0,0 l/m 4,8 km/h (1 Bft) O-NO 5,4 C 7,4 C 9,6 km/h (2 Bft)
02.02.2016 06:00 7,7 C 85 % 1022,9 hPa 0,0 l/m 4,2 km/h (1 Bft) O-NO 5,4 C 7,6 C 9,8 km/h (2 Bft)
02.02.2016 07:00 7,5 C 86 % 1022,6 hPa 0,0 l/m 5,5 km/h (2 Bft) O-NO 5,3 C 7,3 C 14,8 km/h (3 Bft)
02.02.2016 08:00 7,5 C 87 % 1022,2 hPa 0,0 l/m 6,4 km/h (2 Bft) O-NO 5,5 C 7,3 C 15,4 km/h (3 Bft)
02.02.2016 09:00 7,8 C 86 % 1022,0 hPa 0,0 l/m 7,0 km/h (2 Bft) O-NO 5,7 C 7,1 C 15,5 km/h (3 Bft)
02.02.2016 10:00 8,3 C 85 % 1021,8 hPa 0,0 l/m 6,9 km/h (2 Bft) O 5,8 C 7,7 C 15,3 km/h (3 Bft)
02.02.2016 11:00 8,3 C 84 % 1021,6 hPa 0,0 l/m 7,6 km/h (2 Bft) O-NO 5,7 C 7,3 C 16,7 km/h (3 Bft)
02.02.2016 12:00 8,2 C 82 % 1021,3 hPa 0,0 l/m 8,1 km/h (2 Bft) O-NO 5,3 C 6,9 C 16,1 km/h (3 Bft)
02.02.2016 13:00 8,3 C 81 % 1020,4 hPa 0,0 l/m 7,4 km/h (2 Bft) NO 5,3 C 7,6 C 17,2 km/h (3 Bft)
02.02.2016 14:00 8,3 C 80 % 1019,0 hPa 0,0 l/m 7,1 km/h (2 Bft) O-NO 5,1 C 7,7 C 15,9 km/h (3 Bft)
02.02.2016 15:00 8,3 C 79 % 1018,4 hPa 0,0 l/m 10,4 km/h (2 Bft) O 4,9 C 5,6 C 21,9 km/h (4 Bft)
02.02.2016 16:00 8,2 C 79 % 1018,7 hPa 0,0 l/m 12,1 km/h (2 Bft) NO 4,6 C 4,4 C 25,6 km/h (4 Bft)
02.02.2016 17:00 7,9 C 80 % 1018,4 hPa 0,0 l/m 11,4 km/h (2 Bft) O 4,7 C 4,6 C 25,7 km/h (4 Bft)
02.02.2016 18:00 7,9 C 81 % 1018,3 hPa 0,0 l/m 12,0 km/h (2 Bft) O-NO 4,8 C 4,1 C 27,7 km/h (5 Bft)
02.02.2016 19:00 7,7 C 82 % 1018,5 hPa 0,0 l/m 11,6 km/h (2 Bft) NO 4,9 C 4,2 C 28,8 km/h (5 Bft)
02.02.2016 20:00 7,5 C 85 % 1018,7 hPa 0,0 l/m 9,8 km/h (2 Bft) O-NO 5,1 C 5,0 C 20,9 km/h (4 Bft)
02.02.2016 21:00 7,6 C 84 % 1018,6 hPa 0,0 l/m 9,8 km/h (2 Bft) O-NO 5,1 C 5,2 C 22,0 km/h (4 Bft)
02.02.2016 22:00 7,6 C 84 % 1018,7 hPa 0,0 l/m 11,2 km/h (2 Bft) NO 5,0 C 4,2 C 26,5 km/h (4 Bft)
02.02.2016 23:00 6,4 C 89 % 1019,1 hPa 0,5 l/m 8,6 km/h (2 Bft) O 4,7 C 4,5 C 19,7 km/h (3 Bft)
03.02.2016 00:00 4,3 C 90 % 1020,0 hPa 0,0 l/m 5,5 km/h (2 Bft) O 2,8 C 3,7 C 13,1 km/h (3 Bft)
03.02.2016 01:00 2,8 C 90 % 1020,7 hPa 0,3 l/m 3,4 km/h (1 Bft) O-NO 1,3 C 2,8 C 10,2 km/h (2 Bft)
03.02.2016 02:00 2,3 C 91 % 1020,0 hPa 0,0 l/m 3,1 km/h (1 Bft) O-NO 1,1 C 2,3 C 7,9 km/h (2 Bft)
03.02.2016 03:00 2,2 C 92 % 1019,6 hPa 0,3 l/m 2,3 km/h (1 Bft) NO 1,1 C 2,2 C 5,7 km/h (2 Bft)
03.02.2016 04:00 2,0 C 92 % 1018,6 hPa 0,0 l/m 1,1 km/h (1 Bft) O-SO 0,9 C 2,0 C 3,9 km/h (1 Bft)
03.02.2016 05:00 1,9 C 94 % 1018,1 hPa 0,0 l/m 1,5 km/h (1 Bft) O 1,1 C 1,9 C 4,3 km/h (1 Bft)
03.02.2016 06:00 2,0 C 93 % 1017,8 hPa 0,0 l/m 1,2 km/h (1 Bft) O 1,1 C 2,0 C 3,5 km/h (1 Bft)
03.02.2016 07:00 2,0 C 94 % 1018,1 hPa 0,0 l/m 1,6 km/h (1 Bft) O 1,1 C 2,0 C 4,4 km/h (1 Bft)
03.02.2016 08:00 2,1 C 93 % 1018,0 hPa 0,8 l/m 2,7 km/h (1 Bft) O 1,2 C 2,1 C 6,7 km/h (2 Bft)
03.02.2016 09:00 1,8 C 94 % 1018,1 hPa 1,0 l/m 3,4 km/h (1 Bft) NO 1,0 C 1,8 C 7,3 km/h (2 Bft)
03.02.2016 10:00 1,9 C 95 % 1018,3 hPa 0,8 l/m 5,1 km/h (1 Bft) NO 1,2 C 1,8 C 12,5 km/h (2 Bft)
03.02.2016 11:00 2,6 C 94 % 1018,8 hPa 1,0 l/m 5,2 km/h (1 Bft) O-NO 1,8 C 2,5 C 13,3 km/h (3 Bft)
03.02.2016 12:00 3,1 C 92 % 1019,0 hPa 0,3 l/m 3,5 km/h (1 Bft) O-NO 2,0 C 3,1 C 9,3 km/h (2 Bft)
03.02.2016 13:00 3,0 C 91 % 1018,6 hPa 0,0 l/m 6,5 km/h (2 Bft) O 1,7 C 2,4 C 14,8 km/h (3 Bft)
03.02.2016 14:00 2,5 C 90 % 1018,9 hPa 0,3 l/m 5,7 km/h (2 Bft) O 1,1 C 2,3 C 14,2 km/h (3 Bft)
03.02.2016 15:00 0,9 C 92 % 1019,9 hPa 0,3 l/m 4,0 km/h (1 Bft) O-NO -0,1 C 0,8 C 10,0 km/h (2 Bft)
03.02.2016 16:00 1,0 C 91 % 1021,3 hPa 0,8 l/m 3,4 km/h (1 Bft) O-NO -0,4 C 1,0 C 9,9 km/h (2 Bft)
03.02.2016 17:00 0,7 C 89 % 1022,5 hPa 0,0 l/m 3,4 km/h (1 Bft) O-NO -0,9 C 0,7 C 9,6 km/h (2 Bft)
03.02.2016 18:00 0,4 C 89 % 1023,4 hPa 0,0 l/m 1,5 km/h (1 Bft) O-NO -1,1 C 0,4 C 4,1 km/h (1 Bft)
03.02.2016 19:00 -0,3 C 91 % 1024,5 hPa 0,0 l/m 0,8 km/h (0 Bft) O -1,5 C -0,3 C 3,5 km/h (1 Bft)
03.02.2016 20:00 -0,2 C 94 % 1025,5 hPa 0,0 l/m 2,5 km/h (1 Bft) O -1,1 C -0,2 C 7,1 km/h (2 Bft)
03.02.2016 21:00 -0,2 C 96 % 1026,3 hPa 0,0 l/m 1,4 km/h (1 Bft) O -0,8 C -0,2 C 4,0 km/h (1 Bft)
03.02.2016 22:00 -0,3 C 95 % 1027,0 hPa 0,0 l/m 2,0 km/h (1 Bft) O -0,9 C -0,3 C 7,2 km/h (2 Bft)
03.02.2016 23:00 -0,2 C 93 % 1028,0 hPa 0,0 l/m 1,8 km/h (1 Bft) O -1,2 C -0,2 C 5,6 km/h (2 Bft)
04.02.2016 00:00 -0,4 C 93 % 1028,1 hPa 0,0 l/m 1,7 km/h (1 Bft) O -1,4 C -0,4 C 4,3 km/h (1 Bft)
04.02.2016 01:00 -0,4 C 95 % 1028,2 hPa 0,0 l/m 1,1 km/h (1 Bft) O -1,1 C -0,4 C 3,9 km/h (1 Bft)
04.02.2016 02:00 -0,1 C 94 % 1028,9 hPa 0,0 l/m 3,1 km/h (1 Bft) O -1,0 C -0,1 C 8,0 km/h (2 Bft)
04.02.2016 03:00 -0,0 C 94 % 1028,8 hPa 0,0 l/m 3,4 km/h (1 Bft) O -0,9 C -0,0 C 7,7 km/h (2 Bft)
04.02.2016 04:00 -0,1 C 94 % 1029,0 hPa 0,0 l/m 3,1 km/h (1 Bft) O -0,9 C -0,1 C 9,0 km/h (2 Bft)
04.02.2016 05:00 0,1 C 93 % 1028,9 hPa 0,0 l/m 3,1 km/h (1 Bft) O -0,9 C 0,1 C 7,7 km/h (2 Bft)
04.02.2016 06:00 0,1 C 94 % 1028,9 hPa 0,3 l/m 4,6 km/h (1 Bft) O-NO -0,8 C -0,1 C 11,4 km/h (2 Bft)
04.02.2016 07:00 0,1 C 93 % 1029,2 hPa 0,0 l/m 3,3 km/h (1 Bft) O-NO -0,8 C 0,1 C 10,2 km/h (2 Bft)
04.02.2016 08:00 0,3 C 93 % 1029,7 hPa 0,0 l/m 4,0 km/h (1 Bft) O -0,7 C 0,1 C 10,2 km/h (2 Bft)
04.02.2016 09:00 0,6 C 91 % 1029,8 hPa 0,0 l/m 4,4 km/h (1 Bft) O -0,6 C 0,5 C 10,8 km/h (2 Bft)
04.02.2016 10:00 0,9 C 91 % 1029,9 hPa 0,0 l/m 5,7 km/h (2 Bft) NO -0,4 C 0,8 C 13,6 km/h (3 Bft)
04.02.2016 11:00 0,9 C 92 % 1029,2 hPa 0,0 l/m 6,9 km/h (2 Bft) O-NO -0,2 C -0,0 C 15,7 km/h (3 Bft)
04.02.2016 12:00 0,9 C 93 % 1028,2 hPa 0,0 l/m 8,0 km/h (2 Bft) O-NO -0,1 C -0,7 C 18,1 km/h (3 Bft)
04.02.2016 13:00 0,7 C 95 % 1026,2 hPa 0,5 l/m 8,2 km/h (2 Bft) O-NO -0,1 C -1,0 C 19,7 km/h (3 Bft)
04.02.2016 14:00 0,6 C 95 % 1024,7 hPa 1,3 l/m 9,4 km/h (2 Bft) NO -0,1 C -2,0 C 19,6 km/h (3 Bft)
04.02.2016 15:00 0,7 C 94 % 1024,0 hPa 1,5 l/m 8,7 km/h (2 Bft) O-NO -0,1 C -1,6 C 20,7 km/h (4 Bft)
04.02.2016 16:00 0,6 C 95 % 1023,7 hPa 1,0 l/m 8,5 km/h (2 Bft) NO -0,1 C -1,4 C 21,6 km/h (4 Bft)
04.02.2016 17:00 0,5 C 96 % 1024,0 hPa 0,8 l/m 6,0 km/h (2 Bft) O-NO -0,1 C 0,1 C 14,8 km/h (3 Bft)
04.02.2016 18:00 0,7 C 96 % 1024,5 hPa 1,5 l/m 4,2 km/h (1 Bft) O 0,1 C 0,6 C 9,2 km/h (2 Bft)
04.02.2016 19:00 0,7 C 96 % 1025,4 hPa 1,5 l/m 2,5 km/h (1 Bft) O-NO 0,1 C 0,7 C 6,3 km/h (2 Bft)
04.02.2016 20:00 1,0 C 96 % 1025,8 hPa 1,5 l/m 1,9 km/h (1 Bft) O-NO 0,5 C 1,0 C 4,0 km/h (1 Bft)
04.02.2016 21:00 0,9 C 96 % 1026,1 hPa 2,5 l/m 0,9 km/h (0 Bft) O-NO 0,4 C 0,9 C 2,4 km/h (1 Bft)
04.02.2016 22:00 1,1 C 97 % 1026,7 hPa 3,0 l/m 0,9 km/h (0 Bft) O 0,6 C 1,1 C 2,8 km/h (1 Bft)
04.02.2016 23:00 1,6 C 97 % 1027,4 hPa 1,3 l/m 1,3 km/h (1 Bft) O 1,1 C 1,6 C 3,4 km/h (1 Bft)
05.02.2016 00:00 1,9 C 97 % 1027,8 hPa 1,5 l/m 1,3 km/h (1 Bft) O-SO 1,4 C 1,9 C 3,5 km/h (1 Bft)
05.02.2016 01:00 2,3 C 96 % 1028,3 hPa 0,8 l/m 1,3 km/h (1 Bft) O 1,7 C 2,3 C 5,5 km/h (2 Bft)
05.02.2016 02:00 2,3 C 95 % 1028,8 hPa 0,5 l/m 0,7 km/h (0 Bft) S-SW 1,6 C 2,3 C 2,5 km/h (1 Bft)
05.02.2016 03:00 2,0 C 96 % 1028,9 hPa 0,5 l/m 0,5 km/h (0 Bft) S-SW 1,4 C 2,0 C 2,0 km/h (1 Bft)
05.02.2016 04:00 2,1 C 96 % 1028,9 hPa 0,5 l/m 1,3 km/h (1 Bft) O-SO 1,5 C 2,1 C 5,6 km/h (2 Bft)
05.02.2016 05:00 2,2 C 95 % 1029,5 hPa 0,5 l/m 1,3 km/h (1 Bft) O-NO 1,4 C 2,2 C 3,6 km/h (1 Bft)
05.02.2016 06:00 2,1 C 94 % 1029,7 hPa 0,3 l/m 1,1 km/h (1 Bft) N-NO 1,3 C 2,1 C 2,7 km/h (1 Bft)
05.02.2016 07:00 1,7 C 96 % 1030,1 hPa 0,3 l/m 0,4 km/h (0 Bft) N-NO 1,1 C 1,7 C 1,9 km/h (1 Bft)
05.02.2016 08:00 1,7 C 97 % 1030,4 hPa 0,5 l/m 1,2 km/h (1 Bft) O 1,2 C 1,7 C 2,9 km/h (1 Bft)
05.02.2016 09:00 2,1 C 96 % 1030,4 hPa 0,8 l/m 1,9 km/h (1 Bft) O 1,5 C 2,1 C 4,1 km/h (1 Bft)
05.02.2016 10:00 2,9 C 96 % 1030,1 hPa 1,3 l/m 1,1 km/h (1 Bft) O 2,3 C 2,9 C 3,5 km/h (1 Bft)
05.02.2016 11:00 4,0 C 95 % 1029,8 hPa 1,8 l/m 2,0 km/h (1 Bft) NO 3,2 C 4,0 C 4,6 km/h (1 Bft)
05.02.2016 12:00 5,5 C 92 % 1029,2 hPa 2,0 l/m 2,6 km/h (1 Bft) O 4,4 C 5,5 C 5,0 km/h (1 Bft)
05.02.2016 13:00 6,4 C 90 % 1028,4 hPa 1,5 l/m 2,3 km/h (1 Bft) O-NO 4,8 C 6,4 C 5,3 km/h (1 Bft)
05.02.2016 14:00 6,0 C 92 % 1027,9 hPa 0,5 l/m 0,7 km/h (0 Bft) O-NO 4,8 C 6,0 C 2,0 km/h (1 Bft)
05.02.2016 15:00 5,9 C 93 % 1027,6 hPa 0,0 l/m 0,2 km/h (0 Bft) O-NO 4,8 C 5,9 C 1,1 km/h (1 Bft)
05.02.2016 16:00 5,5 C 94 % 1027,1 hPa 0,0 l/m 0,1 km/h (0 Bft) O-NO 4,6 C 5,5 C 1,2 km/h (1 Bft)
05.02.2016 17:00 4,9 C 94 % 1026,6 hPa 0,0 l/m 0,3 km/h (0 Bft) O-NO 4,0 C 4,9 C 1,1 km/h (1 Bft)
05.02.2016 18:00 3,7 C 93 % 1026,4 hPa 0,0 l/m 0,1 km/h (0 Bft) O-NO 2,7 C 3,7 C 0,6 km/h (0 Bft)
05.02.2016 19:00 1,7 C 95 % 1026,0 hPa 0,0 l/m 0,0 km/h (0 Bft) O-NO 1,0 C 1,7 C 0,3 km/h (0 Bft)
05.02.2016 20:00 0,6 C 96 % 1025,5 hPa 0,0 l/m 0,1 km/h (0 Bft) O-NO 0,0 C 0,6 C 0,6 km/h (0 Bft)
05.02.2016 21:00 0,4 C 97 % 1025,1 hPa 0,0 l/m 0,6 km/h (0 Bft) O-NO -0,0 C 0,4 C 2,5 km/h (1 Bft)
05.02.2016 22:00 2,1 C 98 % 1024,6 hPa 0,0 l/m 1,3 km/h (1 Bft) S-SO 1,8 C 2,1 C 4,5 km/h (1 Bft)
05.02.2016 23:00 1,9 C 97 % 1024,2 hPa 0,0 l/m 0,8 km/h (0 Bft) SO 1,5 C 1,9 C 3,3 km/h (1 Bft)
06.02.2016 00:00 1,1 C 97 % 1023,9 hPa 0,0 l/m 0,5 km/h (0 Bft) SO 0,6 C 1,1 C 2,4 km/h (1 Bft)
06.02.2016 01:00 0,5 C 97 % 1023,2 hPa 0,0 l/m 0,6 km/h (0 Bft) O-SO 0,1 C 0,5 C 2,5 km/h (1 Bft)
06.02.2016 02:00 0,7 C 98 % 1022,8 hPa 0,0 l/m 0,6 km/h (0 Bft) O-SO 0,4 C 0,7 C 2,5 km/h (1 Bft)
06.02.2016 03:00 1,1 C 98 % 1022,2 hPa 0,0 l/m 0,7 km/h (0 Bft) O-SO 0,8 C 1,1 C 2,6 km/h (1 Bft)
06.02.2016 04:00 1,8 C 98 % 1021,5 hPa 0,0 l/m 2,7 km/h (1 Bft) O 1,5 C 1,8 C 7,6 km/h (2 Bft)
06.02.2016 05:00 1,7 C 97 % 1021,1 hPa 0,0 l/m 3,0 km/h (1 Bft) O-NO 1,3 C 1,7 C 6,6 km/h (2 Bft)
06.02.2016 06:00 1,7 C 97 % 1020,8 hPa 0,0 l/m 3,4 km/h (1 Bft) O-NO 1,3 C 1,7 C 7,8 km/h (2 Bft)
06.02.2016 07:00 1,3 C 96 % 1020,6 hPa 0,0 l/m 1,1 km/h (1 Bft) SO 0,7 C 1,3 C 3,3 km/h (1 Bft)
06.02.2016 08:00 0,0 C 96 % 1020,9 hPa 0,0 l/m 0,1 km/h (0 Bft) SO -0,5 C 0,0 C 0,7 km/h (0 Bft)
06.02.2016 09:00 0,6 C 97 % 1020,8 hPa 0,0 l/m 0,1 km/h (0 Bft) SO 0,2 C 0,6 C 0,6 km/h (0 Bft)
06.02.2016 10:00 6,4 C 82 % 1020,0 hPa 0,0 l/m 4,5 km/h (1 Bft) O 3,5 C 6,3 C 11,8 km/h (2 Bft)
06.02.2016 11:00 9,9 C 64 % 1019,4 hPa 0,0 l/m 4,4 km/h (1 Bft) O-NO 3,4 C 9,9 C 10,3 km/h (2 Bft)
06.02.2016 12:00 10,7 C 66 % 1018,8 hPa 0,0 l/m 3,2 km/h (1 Bft) NW 4,5 C 10,7 C 7,2 km/h (2 Bft)
06.02.2016 13:00 12,9 C 56 % 1017,5 hPa 0,0 l/m 4,6 km/h (1 Bft) NO 4,3 C 12,9 C 10,6 km/h (2 Bft)
06.02.2016 14:00 12,4 C 63 % 1016,1 hPa 0,0 l/m 4,4 km/h (1 Bft) N-NO 5,6 C 12,4 C 9,5 km/h (2 Bft)
06.02.2016 15:00 11,9 C 62 % 1015,3 hPa 0,0 l/m 3,5 km/h (1 Bft) O 4,7 C 11,9 C 7,9 km/h (2 Bft)
06.02.2016 16:00 10,4 C 69 % 1014,1 hPa 0,0 l/m 4,0 km/h (1 Bft) NO 4,9 C 10,4 C 9,8 km/h (2 Bft)
06.02.2016 17:00 8,2 C 77 % 1013,1 hPa 0,0 l/m 3,0 km/h (1 Bft) O 4,4 C 8,2 C 7,0 km/h (2 Bft)
06.02.2016 18:00 6,9 C 81 % 1012,6 hPa 0,0 l/m 3,0 km/h (1 Bft) O-NO 3,8 C 6,9 C 6,1 km/h (2 Bft)
06.02.2016 19:00 6,0 C 79 % 1011,8 hPa 0,0 l/m 2,7 km/h (1 Bft) O 2,7 C 6,0 C 6,7 km/h (2 Bft)
06.02.2016 20:00 4,6 C 83 % 1010,9 hPa 0,0 l/m 2,0 km/h (1 Bft) O 1,9 C 4,6 C 5,2 km/h (1 Bft)
06.02.2016 21:00 3,9 C 85 % 1010,4 hPa 0,0 l/m 1,1 km/h (0 Bft) O-NO 1,5 C 3,9 C 3,4 km/h (1 Bft)
06.02.2016 22:00 1,5 C 91 % 1009,6 hPa 0,0 l/m 0,3 km/h (0 Bft) SO 0,3 C 1,5 C 1,9 km/h (1 Bft)
06.02.2016 23:00 0,3 C 94 % 1009,0 hPa 0,0 l/m 0,4 km/h (0 Bft) SO -0,5 C 0,3 C 2,2 km/h (1 Bft)
07.02.2016 00:00 0,2 C 95 % 1008,8 hPa 0,0 l/m 0,2 km/h (0 Bft) SO -0,6 C 0,2 C 1,6 km/h (1 Bft)
07.02.2016 01:00 0,2 C 95 % 1008,1 hPa 0,0 l/m 0,6 km/h (0 Bft) SO -0,5 C 0,2 C 2,0 km/h (1 Bft)
07.02.2016 02:00 -0,6 C 95 % 1007,5 hPa 0,0 l/m 0,4 km/h (0 Bft) SO -1,2 C -0,6 C 1,5 km/h (1 Bft)
07.02.2016 03:00 -0,8 C 96 % 1006,9 hPa 0,0 l/m 0,4 km/h (0 Bft) SO -1,4 C -0,8 C 1,2 km/h (1 Bft)
07.02.2016 04:00 -1,3 C 96 % 1006,2 hPa 0,0 l/m 0,2 km/h (0 Bft) SO -1,8 C -1,3 C 1,1 km/h (0 Bft)
07.02.2016 05:00 -1,2 C 97 % 1005,7 hPa 0,0 l/m 0,2 km/h (0 Bft) SO -1,6 C -1,2 C 0,9 km/h (0 Bft)
07.02.2016 06:00 -1,0 C 97 % 1005,3 hPa 0,0 l/m 0,2 km/h (0 Bft) SO -1,4 C -1,0 C 1,6 km/h (1 Bft)
07.02.2016 07:00 -1,0 C 96 % 1005,0 hPa 0,0 l/m 0,3 km/h (0 Bft) SO -1,5 C -1,0 C 1,9 km/h (1 Bft)
07.02.2016 08:00 -0,9 C 97 % 1004,6 hPa 0,0 l/m 0,2 km/h (0 Bft) SO -1,4 C -0,9 C 1,4 km/h (1 Bft)
07.02.2016 09:00 -0,4 C 97 % 1004,3 hPa 0,0 l/m 0,4 km/h (0 Bft) SO -0,8 C -0,4 C 1,8 km/h (1 Bft)
07.02.2016 10:00 0,7 C 97 % 1003,9 hPa 0,0 l/m 0,1 km/h (0 Bft) O-SO 0,3 C 0,7 C 1,3 km/h (1 Bft)
07.02.2016 11:00 5,3 C 86 % 1005,0 hPa 0,0 l/m 4,7 km/h (1 Bft) O 3,1 C 5,1 C 12,5 km/h (2 Bft)
07.02.2016 12:00 7,1 C 81 % 1005,2 hPa 0,3 l/m 5,9 km/h (2 Bft) O-NO 4,0 C 6,7 C 14,1 km/h (3 Bft)
07.02.2016 13:00 6,3 C 85 % 1006,5 hPa 0,0 l/m 5,9 km/h (2 Bft) O 3,9 C 6,2 C 16,5 km/h (3 Bft)
07.02.2016 14:00 4,4 C 90 % 1007,9 hPa 0,0 l/m 3,7 km/h (1 Bft) O-NO 2,8 C 4,4 C 11,2 km/h (2 Bft)
07.02.2016 15:00 4,0 C 90 % 1008,6 hPa 0,0 l/m 3,2 km/h (1 Bft) O-NO 2,6 C 4,0 C 8,1 km/h (2 Bft)
07.02.2016 16:00 3,8 C 91 % 1009,6 hPa 0,0 l/m 4,2 km/h (1 Bft) NO 2,5 C 3,8 C 10,2 km/h (2 Bft)
07.02.2016 17:00 3,8 C 91 % 1010,4 hPa 0,0 l/m 5,9 km/h (2 Bft) NO 2,4 C 3,5 C 13,8 km/h (3 Bft)
07.02.2016 18:00 3,6 C 90 % 1011,0 hPa 0,0 l/m 3,4 km/h (1 Bft) O 2,1 C 3,5 C 7,7 km/h (2 Bft)
07.02.2016 19:00 3,5 C 87 % 1011,7 hPa 0,0 l/m 6,4 km/h (2 Bft) O-NO 1,6 C 2,9 C 16,0 km/h (3 Bft)
07.02.2016 20:00 3,3 C 88 % 1012,2 hPa 0,3 l/m 6,9 km/h (2 Bft) O-NO 1,5 C 2,5 C 14,7 km/h (3 Bft)
07.02.2016 21:00 3,3 C 88 % 1012,5 hPa 0,0 l/m 4,7 km/h (1 Bft) O-NO 1,5 C 3,2 C 11,3 km/h (2 Bft)
07.02.2016 22:00 3,5 C 86 % 1012,7 hPa 0,0 l/m 5,9 km/h (2 Bft) O 1,3 C 3,1 C 16,4 km/h (3 Bft)
07.02.2016 23:00 3,7 C 82 % 1012,3 hPa 0,0 l/m 5,4 km/h (2 Bft) NO 1,0 C 3,6 C 13,5 km/h (3 Bft)
Min-Datum _ 07.02.16 06.02.16 07.02.16 - 07.02.16 - 07.02.16 04.02.16 07.02.16
_ Min-Zeit 05:00 13:20 10:40 - 10:00 - 04:10 14:57 10:15
Minimum _ -1,3 C 49 % 1003,7 hPa - 0,0 km/h (0 Bft) - -1,9 C -7,6 C 0,0 km/h (0 Bft)
Max-Datum _ 06.02.16 07.02.16 05.02.16 04.02.16 02.02.16 - 01.02.16 06.02.16 02.02.16
_ Max-Zeit 13:40 11:00 09:06 22:00 18:04 - 02:00 13:40 18:03
Maximum _ 13,3 C 98 % 1030,5 hPa 3,0 l/m 19,3 km/h
O-NO (3 Bft)
- 9,4 C 13,3 C 45,1 km/h
O-NO (6 Bft)
Durchschnitt _ 4,1 C 90 % 1020,8 hPa #43,2 l/m 4,4 km/h (1 Bft) O-NO 2,5 C 3,5 C 10,6 km/h (2 Bft)